sensor_id;sensor_type;location;lat;lon;timestamp;P1;durP1;ratioP1;P2;durP2;ratioP2
17422;SDS011;8829;47.932;7.810;2024-03-23T00:55:03;1.70;;;1.60;;
17422;SDS011;8829;47.932;7.810;2024-03-23T00:57:30;1.50;;;1.40;;
17422;SDS011;8829;47.932;7.810;2024-03-23T00:59:55;3.23;;;1.20;;
17422;SDS011;8829;47.932;7.810;2024-03-23T01:02:22;2.37;;;1.37;;
17422;SDS011;8829;47.932;7.810;2024-03-23T01:04:48;1.30;;;1.20;;
17422;SDS011;8829;47.932;7.810;2024-03-23T01:07:15;2.30;;;1.53;;
17422;SDS011;8829;47.932;7.810;2024-03-23T01:09:40;1.43;;;1.33;;
17422;SDS011;8829;47.932;7.810;2024-03-23T01:12:08;1.50;;;1.40;;
17422;SDS011;8829;47.932;7.810;2024-03-23T01:14:34;1.30;;;1.20;;
17422;SDS011;8829;47.932;7.810;2024-03-23T01:17:01;3.03;;;1.50;;
17422;SDS011;8829;47.932;7.810;2024-03-23T01:19:27;2.47;;;1.80;;
17422;SDS011;8829;47.932;7.810;2024-03-23T01:21:53;1.47;;;1.30;;
17422;SDS011;8829;47.932;7.810;2024-03-23T01:24:19;2.20;;;1.60;;
17422;SDS011;8829;47.932;7.810;2024-03-23T01:26:45;1.40;;;1.40;;
17422;SDS011;8829;47.932;7.810;2024-03-23T01:29:12;4.07;;;1.90;;
17422;SDS011;8829;47.932;7.810;2024-03-23T01:31:39;2.37;;;1.60;;
17422;SDS011;8829;47.932;7.810;2024-03-23T01:34:05;1.70;;;1.60;;
17422;SDS011;8829;47.932;7.810;2024-03-23T01:36:32;3.43;;;1.90;;
17422;SDS011;8829;47.932;7.810;2024-03-23T01:38:58;1.57;;;1.47;;
17422;SDS011;8829;47.932;7.810;2024-03-23T01:41:25;4.40;;;1.43;;
17422;SDS011;8829;47.932;7.810;2024-03-23T01:43:51;1.60;;;1.30;;
17422;SDS011;8829;47.932;7.810;2024-03-23T01:46:19;1.73;;;1.63;;
17422;SDS011;8829;47.932;7.810;2024-03-23T01:48:44;3.20;;;1.50;;
17422;SDS011;8829;47.932;7.810;2024-03-23T01:51:12;2.50;;;1.40;;
17422;SDS011;8829;47.932;7.810;2024-03-23T01:53:38;1.77;;;1.30;;
17422;SDS011;8829;47.932;7.810;2024-03-23T01:56:05;1.50;;;1.40;;
17422;SDS011;8829;47.932;7.810;2024-03-23T01:58:31;2.73;;;1.60;;
17422;SDS011;8829;47.932;7.810;2024-03-23T02:00:58;2.37;;;1.50;;
17422;SDS011;8829;47.932;7.810;2024-03-23T02:03:25;2.50;;;1.30;;
17422;SDS011;8829;47.932;7.810;2024-03-23T02:05:52;1.30;;;1.20;;
17422;SDS011;8829;47.932;7.810;2024-03-23T02:08:19;1.77;;;1.67;;
17422;SDS011;8829;47.932;7.810;2024-03-23T02:10:47;1.50;;;1.40;;
17422;SDS011;8829;47.932;7.810;2024-03-23T02:13:13;1.57;;;1.47;;
17422;SDS011;8829;47.932;7.810;2024-03-23T02:15:40;2.60;;;1.80;;
17422;SDS011;8829;47.932;7.810;2024-03-23T02:18:06;1.67;;;1.53;;
17422;SDS011;8829;47.932;7.810;2024-03-23T02:20:35;1.83;;;1.40;;
17422;SDS011;8829;47.932;7.810;2024-03-23T02:23:02;1.37;;;1.20;;
17422;SDS011;8829;47.932;7.810;2024-03-23T02:25:31;2.30;;;1.53;;
17422;SDS011;8829;47.932;7.810;2024-03-23T02:27:56;1.93;;;1.37;;
17422;SDS011;8829;47.932;7.810;2024-03-23T02:30:23;1.50;;;1.40;;
17422;SDS011;8829;47.932;7.810;2024-03-23T02:32:49;1.70;;;1.60;;
17422;SDS011;8829;47.932;7.810;2024-03-23T02:35:16;2.03;;;1.50;;
17422;SDS011;8829;47.932;7.810;2024-03-23T02:37:42;1.60;;;1.30;;
17422;SDS011;8829;47.932;7.810;2024-03-23T02:40:10;1.47;;;1.37;;
17422;SDS011;8829;47.932;7.810;2024-03-23T02:42:35;2.37;;;1.40;;
17422;SDS011;8829;47.932;7.810;2024-03-23T02:45:02;1.70;;;1.50;;
17422;SDS011;8829;47.932;7.810;2024-03-23T02:47:29;3.10;;;1.50;;
17422;SDS011;8829;47.932;7.810;2024-03-23T02:49:56;2.33;;;1.47;;
17422;SDS011;8829;47.932;7.810;2024-03-23T02:52:22;3.17;;;1.53;;
17422;SDS011;8829;47.932;7.810;2024-03-23T02:54:49;2.23;;;1.37;;
17422;SDS011;8829;47.932;7.810;2024-03-23T02:57:16;2.30;;;1.40;;
17422;SDS011;8829;47.932;7.810;2024-03-23T02:59:43;1.50;;;1.40;;
17422;SDS011;8829;47.932;7.810;2024-03-23T03:02:08;1.60;;;1.50;;
17422;SDS011;8829;47.932;7.810;2024-03-23T03:04:35;2.17;;;1.50;;
17422;SDS011;8829;47.932;7.810;2024-03-23T03:07:01;3.87;;;1.77;;
17422;SDS011;8829;47.932;7.810;2024-03-23T03:09:27;1.67;;;1.40;;
17422;SDS011;8829;47.932;7.810;2024-03-23T03:11:53;1.77;;;1.63;;
17422;SDS011;8829;47.932;7.810;2024-03-23T03:14:21;1.67;;;1.57;;
17422;SDS011;8829;47.932;7.810;2024-03-23T03:16:47;1.63;;;1.53;;
17422;SDS011;8829;47.932;7.810;2024-03-23T03:19:14;1.83;;;1.43;;
17422;SDS011;8829;47.932;7.810;2024-03-23T03:21:41;2.03;;;1.40;;
17422;SDS011;8829;47.932;7.810;2024-03-23T03:24:08;2.83;;;1.47;;
17422;SDS011;8829;47.932;7.810;2024-03-23T03:26:34;2.40;;;1.63;;
17422;SDS011;8829;47.932;7.810;2024-03-23T03:29:00;2.70;;;1.73;;
17422;SDS011;8829;47.932;7.810;2024-03-23T03:31:28;4.17;;;1.70;;
17422;SDS011;8829;47.932;7.810;2024-03-23T03:33:55;2.33;;;1.63;;
17422;SDS011;8829;47.932;7.810;2024-03-23T03:36:20;2.10;;;1.30;;
17422;SDS011;8829;47.932;7.810;2024-03-23T03:38:47;1.50;;;1.40;;
17422;SDS011;8829;47.932;7.810;2024-03-23T03:41:13;1.37;;;1.33;;
17422;SDS011;8829;47.932;7.810;2024-03-23T03:43:39;1.80;;;1.70;;
17422;SDS011;8829;47.932;7.810;2024-03-23T03:46:05;3.57;;;1.77;;
17422;SDS011;8829;47.932;7.810;2024-03-23T03:48:34;2.90;;;1.53;;
17422;SDS011;8829;47.932;7.810;2024-03-23T03:51:00;1.83;;;1.40;;
17422;SDS011;8829;47.932;7.810;2024-03-23T03:53:26;1.70;;;1.60;;
17422;SDS011;8829;47.932;7.810;2024-03-23T03:55:52;4.40;;;2.00;;
17422;SDS011;8829;47.932;7.810;2024-03-23T03:58:19;2.03;;;1.83;;
17422;SDS011;8829;47.932;7.810;2024-03-23T04:00:44;1.30;;;1.30;;
17422;SDS011;8829;47.932;7.810;2024-03-23T04:03:11;2.67;;;1.80;;
17422;SDS011;8829;47.932;7.810;2024-03-23T04:05:38;1.73;;;1.63;;
17422;SDS011;8829;47.932;7.810;2024-03-23T04:08:05;1.97;;;1.60;;
17422;SDS011;8829;47.932;7.810;2024-03-23T04:10:32;2.00;;;1.87;;
17422;SDS011;8829;47.932;7.810;2024-03-23T04:12:59;1.57;;;1.40;;
17422;SDS011;8829;47.932;7.810;2024-03-23T04:15:26;4.13;;;1.80;;
17422;SDS011;8829;47.932;7.810;2024-03-23T04:17:53;2.40;;;2.20;;
17422;SDS011;8829;47.932;7.810;2024-03-23T04:20:18;2.77;;;2.03;;
17422;SDS011;8829;47.932;7.810;2024-03-23T04:22:46;2.33;;;1.93;;
17422;SDS011;8829;47.932;7.810;2024-03-23T04:25:13;4.07;;;2.40;;
17422;SDS011;8829;47.932;7.810;2024-03-23T04:27:39;2.33;;;1.97;;
17422;SDS011;8829;47.932;7.810;2024-03-23T04:30:06;2.13;;;2.03;;
17422;SDS011;8829;47.932;7.810;2024-03-23T04:32:36;2.57;;;2.33;;
17422;SDS011;8829;47.932;7.810;2024-03-23T04:35:03;5.57;;;2.97;;
17422;SDS011;8829;47.932;7.810;2024-03-23T04:37:31;3.00;;;2.70;;
17422;SDS011;8829;47.932;7.810;2024-03-23T04:39:59;3.70;;;3.10;;
17422;SDS011;8829;47.932;7.810;2024-03-23T04:42:26;4.50;;;2.83;;
17422;SDS011;8829;47.932;7.810;2024-03-23T04:44:53;3.47;;;2.90;;
17422;SDS011;8829;47.932;7.810;2024-03-23T04:47:20;4.03;;;2.50;;
17422;SDS011;8829;47.932;7.810;2024-03-23T04:49:47;2.50;;;2.30;;
17422;SDS011;8829;47.932;7.810;2024-03-23T04:52:14;4.43;;;2.50;;
17422;SDS011;8829;47.932;7.810;2024-03-23T04:54:41;3.67;;;2.70;;
17422;SDS011;8829;47.932;7.810;2024-03-23T04:57:08;3.37;;;3.00;;
17422;SDS011;8829;47.932;7.810;2024-03-23T04:59:35;3.00;;;2.70;;
17422;SDS011;8829;47.932;7.810;2024-03-23T05:02:01;5.43;;;2.60;;
17422;SDS011;8829;47.932;7.810;2024-03-23T05:04:27;5.60;;;3.07;;
17422;SDS011;8829;47.932;7.810;2024-03-23T05:06:53;3.83;;;2.83;;
17422;SDS011;8829;47.932;7.810;2024-03-23T05:09:20;3.40;;;3.10;;
17422;SDS011;8829;47.932;7.810;2024-03-23T05:11:47;4.27;;;2.80;;
17422;SDS011;8829;47.932;7.810;2024-03-23T05:14:15;3.97;;;3.37;;
17422;SDS011;8829;47.932;7.810;2024-03-23T05:16:41;3.63;;;2.93;;
17422;SDS011;8829;47.932;7.810;2024-03-23T05:19:08;5.60;;;2.60;;
17422;SDS011;8829;47.932;7.810;2024-03-23T05:21:33;4.37;;;3.00;;
17422;SDS011;8829;47.932;7.810;2024-03-23T05:24:00;4.33;;;3.13;;
17422;SDS011;8829;47.932;7.810;2024-03-23T05:26:26;3.27;;;2.93;;
17422;SDS011;8829;47.932;7.810;2024-03-23T05:28:52;4.60;;;2.53;;
17422;SDS011;8829;47.932;7.810;2024-03-23T05:31:26;4.70;;;3.00;;
17422;SDS011;8829;47.932;7.810;2024-03-23T05:33:54;3.57;;;3.17;;
17422;SDS011;8829;47.932;7.810;2024-03-23T05:36:19;3.70;;;2.90;;
17422;SDS011;8829;47.932;7.810;2024-03-23T05:38:46;4.30;;;3.00;;
17422;SDS011;8829;47.932;7.810;2024-03-23T05:41:13;3.60;;;2.97;;
17422;SDS011;8829;47.932;7.810;2024-03-23T05:43:39;3.30;;;3.00;;
17422;SDS011;8829;47.932;7.810;2024-03-23T05:46:05;15.80;;;10.63;;
17422;SDS011;8829;47.932;7.810;2024-03-23T05:48:34;5.70;;;4.00;;
17422;SDS011;8829;47.932;7.810;2024-03-23T05:50:59;3.43;;;3.13;;
17422;SDS011;8829;47.932;7.810;2024-03-23T05:53:26;6.33;;;5.07;;
17422;SDS011;8829;47.932;7.810;2024-03-23T05:56:00;3.83;;;3.43;;
17422;SDS011;8829;47.932;7.810;2024-03-23T05:58:29;4.47;;;3.20;;
17422;SDS011;8829;47.932;7.810;2024-03-23T06:00:57;3.10;;;2.90;;
17422;SDS011;8829;47.932;7.810;2024-03-23T06:03:24;5.23;;;3.67;;
17422;SDS011;8829;47.932;7.810;2024-03-23T06:05:51;3.47;;;2.70;;
17422;SDS011;8829;47.932;7.810;2024-03-23T06:08:18;3.77;;;3.33;;
17422;SDS011;8829;47.932;7.810;2024-03-23T06:10:44;3.20;;;2.53;;
17422;SDS011;8829;47.932;7.810;2024-03-23T06:13:11;4.83;;;3.40;;
17422;SDS011;8829;47.932;7.810;2024-03-23T06:15:37;3.97;;;3.20;;
17422;SDS011;8829;47.932;7.810;2024-03-23T06:18:04;3.50;;;3.20;;
17422;SDS011;8829;47.932;7.810;2024-03-23T06:20:30;9.23;;;3.30;;
17422;SDS011;8829;47.932;7.810;2024-03-23T06:22:58;2.90;;;2.70;;
17422;SDS011;8829;47.932;7.810;2024-03-23T06:25:23;2.13;;;1.93;;
17422;SDS011;8829;47.932;7.810;2024-03-23T06:27:50;2.03;;;1.60;;
17422;SDS011;8829;47.932;7.810;2024-03-23T06:30:17;1.83;;;1.60;;
17422;SDS011;8829;47.932;7.810;2024-03-23T06:32:42;1.20;;;1.10;;
17422;SDS011;8829;47.932;7.810;2024-03-23T06:35:09;0.90;;;0.90;;
17422;SDS011;8829;47.932;7.810;2024-03-23T06:37:35;0.70;;;0.70;;
17422;SDS011;8829;47.932;7.810;2024-03-23T06:40:06;0.50;;;0.50;;
17422;SDS011;8829;47.932;7.810;2024-03-23T06:42:34;0.50;;;0.50;;
17422;SDS011;8829;47.932;7.810;2024-03-23T06:45:01;0.40;;;0.40;;
17422;SDS011;8829;47.932;7.810;2024-03-23T06:47:27;0.87;;;0.60;;
17422;SDS011;8829;47.932;7.810;2024-03-23T06:49:53;0.57;;;0.57;;
17422;SDS011;8829;47.932;7.810;2024-03-23T06:52:19;0.93;;;0.93;;
17422;SDS011;8829;47.932;7.810;2024-03-23T06:54:46;0.50;;;0.50;;
17422;SDS011;8829;47.932;7.810;2024-03-23T06:57:13;1.17;;;1.07;;
17422;SDS011;8829;47.932;7.810;2024-03-23T06:59:39;0.50;;;0.50;;
17422;SDS011;8829;47.932;7.810;2024-03-23T07:02:05;0.30;;;0.30;;
17422;SDS011;8829;47.932;7.810;2024-03-23T07:04:33;0.57;;;0.57;;
17422;SDS011;8829;47.932;7.810;2024-03-23T07:06:59;0.40;;;0.40;;
17422;SDS011;8829;47.932;7.810;2024-03-23T07:09:26;0.57;;;0.57;;
17422;SDS011;8829;47.932;7.810;2024-03-23T07:11:53;0.80;;;0.80;;
17422;SDS011;8829;47.932;7.810;2024-03-23T07:14:20;0.40;;;0.40;;
17422;SDS011;8829;47.932;7.810;2024-03-23T07:16:47;0.40;;;0.40;;
17422;SDS011;8829;47.932;7.810;2024-03-23T07:19:14;0.40;;;0.30;;
17422;SDS011;8829;47.932;7.810;2024-03-23T07:21:43;0.30;;;0.30;;
17422;SDS011;8829;47.932;7.810;2024-03-23T07:24:09;0.30;;;0.30;;
17422;SDS011;8829;47.932;7.810;2024-03-23T07:26:36;0.30;;;0.30;;
17422;SDS011;8829;47.932;7.810;2024-03-23T07:29:02;1.63;;;0.40;;
17422;SDS011;8829;47.932;7.810;2024-03-23T07:31:30;0.30;;;0.30;;
17422;SDS011;8829;47.932;7.810;2024-03-23T07:33:56;1.83;;;0.40;;
17422;SDS011;8829;47.932;7.810;2024-03-23T07:36:23;1.23;;;0.50;;
17422;SDS011;8829;47.932;7.810;2024-03-23T07:38:49;0.40;;;0.40;;
17422;SDS011;8829;47.932;7.810;2024-03-23T07:41:17;0.47;;;0.43;;
17422;SDS011;8829;47.932;7.810;2024-03-23T07:43:44;0.30;;;0.30;;
17422;SDS011;8829;47.932;7.810;2024-03-23T07:46:11;0.30;;;0.30;;
17422;SDS011;8829;47.932;7.810;2024-03-23T07:48:38;0.20;;;0.20;;
17422;SDS011;8829;47.932;7.810;2024-03-23T07:51:07;1.30;;;0.40;;
17422;SDS011;8829;47.932;7.810;2024-03-23T07:53:34;0.33;;;0.33;;
17422;SDS011;8829;47.932;7.810;2024-03-23T07:56:02;0.40;;;0.40;;
17422;SDS011;8829;47.932;7.810;2024-03-23T07:58:30;1.50;;;0.63;;
17422;SDS011;8829;47.932;7.810;2024-03-23T08:01:03;1.30;;;0.67;;
17422;SDS011;8829;47.932;7.810;2024-03-23T08:03:30;0.50;;;0.50;;
17422;SDS011;8829;47.932;7.810;2024-03-23T08:05:58;1.20;;;0.63;;
17422;SDS011;8829;47.932;7.810;2024-03-23T08:08:31;0.30;;;0.30;;
17422;SDS011;8829;47.932;7.810;2024-03-23T08:10:58;0.30;;;0.30;;
17422;SDS011;8829;47.932;7.810;2024-03-23T08:13:24;0.30;;;0.30;;
17422;SDS011;8829;47.932;7.810;2024-03-23T08:15:50;0.37;;;0.37;;
17422;SDS011;8829;47.932;7.810;2024-03-23T08:18:16;0.50;;;0.50;;
17422;SDS011;8829;47.932;7.810;2024-03-23T08:20:43;0.40;;;0.40;;
17422;SDS011;8829;47.932;7.810;2024-03-23T08:23:10;1.90;;;0.50;;
17422;SDS011;8829;47.932;7.810;2024-03-23T08:25:36;1.33;;;0.60;;
17422;SDS011;8829;47.932;7.810;2024-03-23T08:28:02;0.73;;;0.73;;
17422;SDS011;8829;47.932;7.810;2024-03-23T08:30:29;1.30;;;0.70;;
17422;SDS011;8829;47.932;7.810;2024-03-23T08:32:55;0.60;;;0.60;;
17422;SDS011;8829;47.932;7.810;2024-03-23T08:35:22;0.53;;;0.50;;
17422;SDS011;8829;47.932;7.810;2024-03-23T08:37:47;1.50;;;1.30;;
17422;SDS011;8829;47.932;7.810;2024-03-23T08:40:15;1.37;;;0.80;;
17422;SDS011;8829;47.932;7.810;2024-03-23T08:42:41;0.67;;;0.67;;
17422;SDS011;8829;47.932;7.810;2024-03-23T08:45:09;2.07;;;0.77;;
17422;SDS011;8829;47.932;7.810;2024-03-23T08:47:35;1.67;;;1.10;;
17422;SDS011;8829;47.932;7.810;2024-03-23T08:50:01;1.50;;;0.97;;
17422;SDS011;8829;47.932;7.810;2024-03-23T08:52:27;4.27;;;1.60;;
17422;SDS011;8829;47.932;7.810;2024-03-23T08:54:54;1.37;;;1.03;;
17422;SDS011;8829;47.932;7.810;2024-03-23T08:57:22;2.07;;;1.30;;
17422;SDS011;8829;47.932;7.810;2024-03-23T08:59:49;2.80;;;1.90;;
17422;SDS011;8829;47.932;7.810;2024-03-23T09:02:15;1.83;;;1.13;;
17422;SDS011;8829;47.932;7.810;2024-03-23T09:04:42;2.53;;;1.83;;
17422;SDS011;8829;47.932;7.810;2024-03-23T09:07:08;10.00;;;3.50;;
17422;SDS011;8829;47.932;7.810;2024-03-23T09:09:37;3.63;;;1.40;;
17422;SDS011;8829;47.932;7.810;2024-03-23T09:12:03;2.07;;;1.20;;
17422;SDS011;8829;47.932;7.810;2024-03-23T09:14:31;2.67;;;1.30;;
17422;SDS011;8829;47.932;7.810;2024-03-23T09:16:57;3.73;;;1.53;;
17422;SDS011;8829;47.932;7.810;2024-03-23T09:19:26;1.40;;;1.30;;
17422;SDS011;8829;47.932;7.810;2024-03-23T09:21:53;1.80;;;1.23;;
17422;SDS011;8829;47.932;7.810;2024-03-23T09:24:19;17.83;;;7.03;;
17422;SDS011;8829;47.932;7.810;2024-03-23T09:26:46;9.07;;;3.80;;
17422;SDS011;8829;47.932;7.810;2024-03-23T09:29:12;1.80;;;1.30;;
17422;SDS011;8829;47.932;7.810;2024-03-23T09:31:40;2.40;;;1.20;;
17422;SDS011;8829;47.932;7.810;2024-03-23T09:34:06;1.33;;;0.90;;
17422;SDS011;8829;47.932;7.810;2024-03-23T09:36:32;3.03;;;1.07;;
17422;SDS011;8829;47.932;7.810;2024-03-23T09:38:59;1.83;;;1.37;;
17422;SDS011;8829;47.932;7.810;2024-03-23T09:41:25;2.90;;;1.20;;
17422;SDS011;8829;47.932;7.810;2024-03-23T09:43:52;2.73;;;1.07;;
17422;SDS011;8829;47.932;7.810;2024-03-23T09:46:18;3.97;;;0.87;;
17422;SDS011;8829;47.932;7.810;2024-03-23T09:48:47;0.90;;;0.90;;
17422;SDS011;8829;47.932;7.810;2024-03-23T09:51:13;1.00;;;0.77;;
17422;SDS011;8829;47.932;7.810;2024-03-23T09:53:40;1.37;;;1.17;;
17422;SDS011;8829;47.932;7.810;2024-03-23T09:56:07;1.30;;;1.10;;
17422;SDS011;8829;47.932;7.810;2024-03-23T09:58:33;4.13;;;1.07;;
17422;SDS011;8829;47.932;7.810;2024-03-23T10:00:59;1.67;;;0.97;;
17422;SDS011;8829;47.932;7.810;2024-03-23T10:03:26;1.73;;;1.40;;
17422;SDS011;8829;47.932;7.810;2024-03-23T10:06:01;3.13;;;0.90;;
17422;SDS011;8829;47.932;7.810;2024-03-23T10:08:29;2.73;;;1.03;;
17422;SDS011;8829;47.932;7.810;2024-03-23T10:10:55;1.87;;;0.90;;
17422;SDS011;8829;47.932;7.810;2024-03-23T10:13:25;1.93;;;1.43;;
17422;SDS011;8829;47.932;7.810;2024-03-23T10:15:55;3.00;;;1.95;;
17422;SDS011;8829;47.932;7.810;2024-03-23T10:18:24;3.73;;;1.70;;
17422;SDS011;8829;47.932;7.810;2024-03-23T10:20:51;4.50;;;1.43;;
17422;SDS011;8829;47.932;7.810;2024-03-23T10:23:33;3.50;;;1.83;;
17422;SDS011;8829;47.932;7.810;2024-03-23T10:26:06;5.30;;;1.80;;
17422;SDS011;8829;47.932;7.810;2024-03-23T10:28:45;6.27;;;2.73;;
17422;SDS011;8829;47.932;7.810;2024-03-23T10:31:20;4.40;;;2.10;;
17422;SDS011;8829;47.932;7.810;2024-03-23T10:33:46;7.10;;;2.33;;
17422;SDS011;8829;47.932;7.810;2024-03-23T10:36:13;8.40;;;3.93;;
17422;SDS011;8829;47.932;7.810;2024-03-23T10:38:42;4.47;;;2.70;;
17422;SDS011;8829;47.932;7.810;2024-03-23T10:41:10;6.50;;;2.27;;
17422;SDS011;8829;47.932;7.810;2024-03-23T10:43:37;4.00;;;1.53;;
17422;SDS011;8829;47.932;7.810;2024-03-23T10:46:03;1.57;;;1.23;;
17422;SDS011;8829;47.932;7.810;2024-03-23T10:48:31;2.47;;;1.30;;
17422;SDS011;8829;47.932;7.810;2024-03-23T10:50:57;0.90;;;0.90;;
17422;SDS011;8829;47.932;7.810;2024-03-23T10:53:25;2.13;;;1.13;;
17422;SDS011;8829;47.932;7.810;2024-03-23T10:55:53;4.37;;;1.30;;
17422;SDS011;8829;47.932;7.810;2024-03-23T10:58:21;1.20;;;1.20;;
17422;SDS011;8829;47.932;7.810;2024-03-23T11:00:51;1.60;;;1.03;;
17422;SDS011;8829;47.932;7.810;2024-03-23T11:03:32;3.33;;;1.40;;
17422;SDS011;8829;47.932;7.810;2024-03-23T11:05:59;1.60;;;1.00;;
17422;SDS011;8829;47.932;7.810;2024-03-23T11:08:34;1.20;;;1.10;;
17422;SDS011;8829;47.932;7.810;2024-03-23T11:11:15;1.80;;;1.10;;
17422;SDS011;8829;47.932;7.810;2024-03-23T11:13:44;2.20;;;0.90;;
17422;SDS011;8829;47.932;7.810;2024-03-23T11:16:13;0.90;;;0.90;;
17422;SDS011;8829;47.932;7.810;2024-03-23T11:18:40;1.70;;;0.80;;
17422;SDS011;8829;47.932;7.810;2024-03-23T11:21:07;1.23;;;0.80;;
17422;SDS011;8829;47.932;7.810;2024-03-23T11:23:33;1.20;;;0.73;;
17422;SDS011;8829;47.932;7.810;2024-03-23T11:25:59;1.63;;;1.00;;
17422;SDS011;8829;47.932;7.810;2024-03-23T11:28:27;1.27;;;0.70;;
17422;SDS011;8829;47.932;7.810;2024-03-23T11:30:53;1.23;;;0.90;;
17422;SDS011;8829;47.932;7.810;2024-03-23T11:33:19;0.63;;;0.63;;
17422;SDS011;8829;47.932;7.810;2024-03-23T11:35:45;0.80;;;0.80;;
17422;SDS011;8829;47.932;7.810;2024-03-23T11:38:12;1.07;;;0.70;;
17422;SDS011;8829;47.932;7.810;2024-03-23T11:40:39;1.23;;;0.60;;
17422;SDS011;8829;47.932;7.810;2024-03-23T11:43:07;1.03;;;0.70;;
17422;SDS011;8829;47.932;7.810;2024-03-23T11:45:37;0.63;;;0.63;;
17422;SDS011;8829;47.932;7.810;2024-03-23T11:48:05;2.23;;;0.90;;
17422;SDS011;8829;47.932;7.810;2024-03-23T11:50:32;1.53;;;0.80;;
17422;SDS011;8829;47.932;7.810;2024-03-23T11:53:09;2.30;;;0.73;;
17422;SDS011;8829;47.932;7.810;2024-03-23T11:55:47;0.97;;;0.57;;
17422;SDS011;8829;47.932;7.810;2024-03-23T11:58:14;1.60;;;0.70;;
17422;SDS011;8829;47.932;7.810;2024-03-23T12:00:43;2.53;;;0.70;;
17422;SDS011;8829;47.932;7.810;2024-03-23T12:03:16;3.37;;;0.90;;
17422;SDS011;8829;47.932;7.810;2024-03-23T12:05:42;1.47;;;0.80;;
17422;SDS011;8829;47.932;7.810;2024-03-23T12:08:15;2.00;;;0.90;;
17422;SDS011;8829;47.932;7.810;2024-03-23T12:10:43;1.53;;;0.77;;
17422;SDS011;8829;47.932;7.810;2024-03-23T12:13:14;4.60;;;1.20;;
17422;SDS011;8829;47.932;7.810;2024-03-23T12:15:43;3.37;;;1.10;;
17422;SDS011;8829;47.932;7.810;2024-03-23T12:18:10;1.77;;;1.00;;
17422;SDS011;8829;47.932;7.810;2024-03-23T12:20:37;2.23;;;1.07;;
17422;SDS011;8829;47.932;7.810;2024-03-23T12:23:10;3.27;;;2.07;;
17422;SDS011;8829;47.932;7.810;2024-03-23T12:25:37;1.80;;;1.33;;
17422;SDS011;8829;47.932;7.810;2024-03-23T12:28:04;2.80;;;1.20;;
17422;SDS011;8829;47.932;7.810;2024-03-23T12:30:31;1.83;;;1.37;;
17422;SDS011;8829;47.932;7.810;2024-03-23T12:33:00;4.10;;;1.30;;
17422;SDS011;8829;47.932;7.810;2024-03-23T12:35:26;4.00;;;1.40;;
17422;SDS011;8829;47.932;7.810;2024-03-23T12:37:53;6.17;;;1.77;;
17422;SDS011;8829;47.932;7.810;2024-03-23T12:40:18;4.40;;;1.00;;
17422;SDS011;8829;47.932;7.810;2024-03-23T12:42:45;4.00;;;1.20;;
17422;SDS011;8829;47.932;7.810;2024-03-23T12:45:11;4.57;;;1.77;;
17422;SDS011;8829;47.932;7.810;2024-03-23T12:47:38;3.27;;;1.13;;
17422;SDS011;8829;47.932;7.810;2024-03-23T12:50:05;1.87;;;1.17;;
17422;SDS011;8829;47.932;7.810;2024-03-23T12:52:33;2.50;;;1.37;;
17422;SDS011;8829;47.932;7.810;2024-03-23T12:54:58;2.87;;;1.47;;
17422;SDS011;8829;47.932;7.810;2024-03-23T12:57:25;4.83;;;1.30;;
17422;SDS011;8829;47.932;7.810;2024-03-23T12:59:51;3.93;;;2.10;;
17422;SDS011;8829;47.932;7.810;2024-03-23T13:02:18;5.00;;;2.47;;
17422;SDS011;8829;47.932;7.810;2024-03-23T13:04:45;1.43;;;0.90;;
17422;SDS011;8829;47.932;7.810;2024-03-23T13:07:14;3.90;;;1.90;;
17422;SDS011;8829;47.932;7.810;2024-03-23T13:09:39;3.20;;;1.50;;
17422;SDS011;8829;47.932;7.810;2024-03-23T13:12:06;4.20;;;1.40;;
17422;SDS011;8829;47.932;7.810;2024-03-23T13:14:33;4.47;;;1.23;;
17422;SDS011;8829;47.932;7.810;2024-03-23T13:16:59;3.60;;;1.40;;
17422;SDS011;8829;47.932;7.810;2024-03-23T13:19:25;4.40;;;1.50;;
17422;SDS011;8829;47.932;7.810;2024-03-23T13:21:55;2.97;;;1.00;;
17422;SDS011;8829;47.932;7.810;2024-03-23T13:24:23;4.20;;;1.60;;
17422;SDS011;8829;47.932;7.810;2024-03-23T13:26:50;4.57;;;1.40;;
17422;SDS011;8829;47.932;7.810;2024-03-23T13:29:16;6.53;;;1.73;;
17422;SDS011;8829;47.932;7.810;2024-03-23T13:31:42;3.70;;;1.23;;
17422;SDS011;8829;47.932;7.810;2024-03-23T13:34:08;1.83;;;0.90;;
17422;SDS011;8829;47.932;7.810;2024-03-23T13:36:35;2.87;;;1.40;;
17422;SDS011;8829;47.932;7.810;2024-03-23T13:39:00;2.37;;;1.00;;
17422;SDS011;8829;47.932;7.810;2024-03-23T13:41:31;2.80;;;1.17;;
17422;SDS011;8829;47.932;7.810;2024-03-23T13:43:57;2.30;;;1.23;;
17422;SDS011;8829;47.932;7.810;2024-03-23T13:46:24;4.60;;;1.10;;
17422;SDS011;8829;47.932;7.810;2024-03-23T13:48:49;2.00;;;0.93;;
17422;SDS011;8829;47.932;7.810;2024-03-23T13:51:22;2.80;;;1.33;;
17422;SDS011;8829;47.932;7.810;2024-03-23T13:53:49;3.23;;;1.10;;
17422;SDS011;8829;47.932;7.810;2024-03-23T13:56:16;6.90;;;1.43;;
17422;SDS011;8829;47.932;7.810;2024-03-23T13:58:43;2.40;;;1.10;;
17422;SDS011;8829;47.932;7.810;2024-03-23T14:01:12;5.90;;;1.70;;
17422;SDS011;8829;47.932;7.810;2024-03-23T14:03:38;2.00;;;1.30;;
17422;SDS011;8829;47.932;7.810;2024-03-23T14:06:05;2.40;;;0.93;;
17422;SDS011;8829;47.932;7.810;2024-03-23T14:08:32;2.33;;;1.10;;
17422;SDS011;8829;47.932;7.810;2024-03-23T14:11:00;3.57;;;1.10;;
17422;SDS011;8829;47.932;7.810;2024-03-23T14:13:27;1.37;;;0.90;;
17422;SDS011;8829;47.932;7.810;2024-03-23T14:15:56;1.07;;;0.67;;
17422;SDS011;8829;47.932;7.810;2024-03-23T14:18:22;6.90;;;1.60;;
17422;SDS011;8829;47.932;7.810;2024-03-23T14:20:49;3.53;;;1.43;;
17422;SDS011;8829;47.932;7.810;2024-03-23T14:23:14;1.57;;;1.40;;
17422;SDS011;8829;47.932;7.810;2024-03-23T14:25:41;3.03;;;1.30;;
17422;SDS011;8829;47.932;7.810;2024-03-23T14:28:07;5.70;;;1.07;;
17422;SDS011;8829;47.932;7.810;2024-03-23T14:30:39;4.50;;;1.43;;
17422;SDS011;8829;47.932;7.810;2024-03-23T14:33:06;2.37;;;0.90;;
17422;SDS011;8829;47.932;7.810;2024-03-23T14:35:33;2.97;;;0.63;;
17422;SDS011;8829;47.932;7.810;2024-03-23T14:37:59;1.80;;;0.87;;
17422;SDS011;8829;47.932;7.810;2024-03-23T14:40:26;3.87;;;0.93;;
17422;SDS011;8829;47.932;7.810;2024-03-23T14:42:52;1.63;;;1.30;;
17422;SDS011;8829;47.932;7.810;2024-03-23T14:45:19;1.60;;;0.90;;
17422;SDS011;8829;47.932;7.810;2024-03-23T14:47:45;0.93;;;0.60;;
17422;SDS011;8829;47.932;7.810;2024-03-23T14:50:13;4.27;;;0.70;;
17422;SDS011;8829;47.932;7.810;2024-03-23T14:52:40;2.00;;;0.73;;
17422;SDS011;8829;47.932;7.810;2024-03-23T14:55:07;0.80;;;0.60;;
17422;SDS011;8829;47.932;7.810;2024-03-23T14:57:34;1.80;;;1.10;;
17422;SDS011;8829;47.932;7.810;2024-03-23T15:00:01;0.90;;;0.90;;
17422;SDS011;8829;47.932;7.810;2024-03-23T15:02:29;2.40;;;0.93;;
17422;SDS011;8829;47.932;7.810;2024-03-23T15:04:57;2.03;;;0.90;;
17422;SDS011;8829;47.932;7.810;2024-03-23T15:07:24;2.07;;;0.80;;
17422;SDS011;8829;47.932;7.810;2024-03-23T15:09:51;1.93;;;0.80;;
17422;SDS011;8829;47.932;7.810;2024-03-23T15:12:18;1.60;;;1.00;;
17422;SDS011;8829;47.932;7.810;2024-03-23T15:14:46;3.60;;;0.90;;
17422;SDS011;8829;47.932;7.810;2024-03-23T15:17:12;1.43;;;0.70;;
17422;SDS011;8829;47.932;7.810;2024-03-23T15:19:39;0.60;;;0.60;;
17422;SDS011;8829;47.932;7.810;2024-03-23T15:22:06;2.93;;;1.33;;
17422;SDS011;8829;47.932;7.810;2024-03-23T15:24:35;1.87;;;1.20;;
17422;SDS011;8829;47.932;7.810;2024-03-23T15:27:01;1.73;;;0.93;;
17422;SDS011;8829;47.932;7.810;2024-03-23T15:29:28;1.47;;;1.30;;
17422;SDS011;8829;47.932;7.810;2024-03-23T15:31:53;3.80;;;1.23;;
17422;SDS011;8829;47.932;7.810;2024-03-23T15:34:20;1.20;;;0.80;;
17422;SDS011;8829;47.932;7.810;2024-03-23T15:36:46;1.80;;;0.67;;
17422;SDS011;8829;47.932;7.810;2024-03-23T15:39:14;1.00;;;0.90;;
17422;SDS011;8829;47.932;7.810;2024-03-23T15:41:41;2.53;;;1.20;;
17422;SDS011;8829;47.932;7.810;2024-03-23T15:44:10;2.13;;;1.10;;
17422;SDS011;8829;47.932;7.810;2024-03-23T15:46:36;1.87;;;1.03;;
17422;SDS011;8829;47.932;7.810;2024-03-23T15:49:02;1.83;;;1.10;;
17422;SDS011;8829;47.932;7.810;2024-03-23T15:51:29;0.67;;;0.67;;
17422;SDS011;8829;47.932;7.810;2024-03-23T15:53:58;2.97;;;1.30;;